Flight Number: AVA6175 Duration: 7:00
Departure: Paris - Charles-de-Gaulle (LFPG) at 16:00 Distance: 2828 Nm
Arrival: Dubai Intl Airport (OMDB) at 23:00 Equipment: B777

Weather Information
Paris-Aeroport Charles De Gaulle, France (LFPG) 49-01N 002-32E 109M May 25, 2024 - 10:00 PM EDT / 2024.05.26 0200 UTC
Wind: from the SSE (150 degrees) at 8 MPH (7 KT):0
Visibility: greater than 7 mile(s):0 Temperature: 62 F (17 C) Dew Point: 51 F (11 C) Relative Humidity: 67% Pressure (altimeter): 29.94 in. Hg (1014 hPa)
ob: LFPG 260200Z 15007KT CAVOK 17/11 Q1014 NOSIG cycle: 2
Sunrise: 03:58 Sunset: 19:35 (UTC)

Dubai International Airport, United Arab Emirates (OMDB) 25-15N 055-20E 5M May 25, 2024 - 10:00 PM EDT / 2024.05.26 0200 UTC
Wind: from the S (190 degrees) at 6 MPH (5 KT):0
Visibility: greater than 7 mile(s):0 Temperature: 84 F (29 C) Dew Point: 73 F (23 C) Relative Humidity: 70% Pressure (altimeter): 29.56 in. Hg (1001 hPa)
ob: OMDB 260200Z 19005KT CAVOK 29/23 Q1001 NOSIG cycle: 2
Sunrise: 01:32 Sunset: 14:59 (UTC)

TAF:2024/05/25 18:00 TAF OMDB 251700Z 2518/2700 18005KT 8000 NSC PROB30 2600/2604 3000 BR BECMG 2607/2609 33012KT BECMG 2616/2618 14005KT

Previous Pireps for this route
Date Flightnr Aircraft Flight time Fuel used Landing rate On time
2019-11-22AVX9772B7776.42131129-124Charter
(pireps marked green are flown by you)

Route map